createdAt,value
2022-08-16T00:01:29.016Z,99962.38
2022-08-16T00:04:05.163Z,99964.96
2022-08-16T00:06:36.537Z,99968.42
2022-08-16T00:09:10.719Z,99970.58
2022-08-16T00:11:41.052Z,99968.67
2022-08-16T00:14:13.650Z,99970.93
2022-08-16T00:17:01.376Z,99972.58
2022-08-16T00:19:41.121Z,99968.80
2022-08-16T00:22:13.338Z,99964.45
2022-08-16T00:24:47.032Z,99967.77
2022-08-16T00:27:20.350Z,99971.27
2022-08-16T00:30:00.683Z,99974.57
2022-08-16T00:32:32.937Z,99980.17
2022-08-16T00:35:01.914Z,99980.65
2022-08-16T00:37:57.485Z,99977.02
2022-08-16T00:40:33.573Z,99974.95
2022-08-16T00:43:11.919Z,99971.25
2022-08-16T00:45:58.070Z,99969.98
2022-08-16T00:48:40.352Z,99966.05
2022-08-16T00:51:15.973Z,99965.85
2022-08-16T00:53:47.082Z,99963.45
2022-08-16T00:56:20.103Z,99958.05
2022-08-16T00:59:11.191Z,99960.74
2022-08-16T01:01:45.484Z,99962.95
2022-08-16T01:04:28.967Z,99967.39
2022-08-16T01:07:02.012Z,99973.86
2022-08-16T01:09:34.497Z,99974.02
2022-08-16T01:12:10.610Z,99972.74
2022-08-16T01:14:44.884Z,99975.48
2022-08-16T01:17:19.383Z,99967.73
2022-08-16T01:19:51.673Z,99972.09
2022-08-16T01:22:57.597Z,99975.76
2022-08-16T01:25:33.652Z,99977.59
2022-08-16T01:28:06.966Z,99980.11
2022-08-16T01:30:40.129Z,99976.49
2022-08-16T01:33:20.008Z,99972.11
2022-08-16T01:35:56.223Z,99968.98
2022-08-16T01:38:30.604Z,99966.17
2022-08-16T01:41:04.305Z,99967.92
2022-08-16T01:43:35.848Z,99970.52
2022-08-16T01:46:37.277Z,99967.92
2022-08-16T01:49:01.166Z,99962.17
2022-08-16T01:51:31.275Z,99962.20
2022-08-16T01:54:01.015Z,99960.92
2022-08-16T01:56:32.064Z,99964.37
2022-08-16T01:59:05.249Z,99966.48
2022-08-16T02:01:35.121Z,99967.23
2022-08-16T02:04:10.879Z,99962.90
2022-08-16T02:06:46.613Z,99965.46
2022-08-16T02:09:15.428Z,99969.58
2022-08-16T02:11:53.464Z,99969.19
2022-08-16T02:14:26.558Z,99970.00
2022-08-16T02:16:57.463Z,99967.80
2022-08-16T02:19:59.561Z,99969.33
2022-08-16T02:22:33.577Z,99963.39
2022-08-16T02:25:10.122Z,99974.41
2022-08-16T02:27:41.035Z,99970.16
2022-08-16T02:30:37.533Z,99957.45
2022-08-16T02:33:07.576Z,99956.70
2022-08-16T02:35:49.724Z,99952.67
2022-08-16T02:38:23.918Z,99947.52
2022-08-16T02:40:54.581Z,99956.00
2022-08-16T02:43:26.886Z,99960.34
2022-08-16T02:45:57.499Z,99959.53
2022-08-16T02:48:29.788Z,99957.98
2022-08-16T02:51:10.691Z,99967.39
2022-08-16T02:53:43.754Z,99973.40
2022-08-16T02:56:15.609Z,99975.46
2022-08-16T02:58:46.704Z,99974.36
2022-08-16T03:01:24.721Z,99971.55
2022-08-16T03:04:40.101Z,99967.95
2022-08-16T03:06:44.817Z,99969.43
2022-08-16T03:09:16.325Z,99968.15
2022-08-16T03:11:45.511Z,99976.73
2022-08-16T03:14:14.998Z,99979.02
2022-08-16T03:16:59.410Z,99978.17
2022-08-16T03:19:47.175Z,99979.78
2022-08-16T03:22:28.328Z,99983.63
2022-08-16T03:25:01.426Z,99987.32
2022-08-16T03:27:32.527Z,99981.35
2022-08-16T03:30:17.300Z,99981.58
2022-08-16T03:32:51.740Z,99979.55
2022-08-16T03:35:32.682Z,99984.10
2022-08-16T03:38:32.422Z,99990.73
2022-08-16T03:40:56.086Z,99990.46
2022-08-16T03:43:51.471Z,99991.86
2022-08-16T03:46:44.559Z,99993.69
2022-08-16T03:49:05.380Z,99999.85
2022-08-16T03:51:36.788Z,100004.47
2022-08-16T03:54:12.508Z,100008.13
2022-08-16T03:56:57.205Z,100001.77
2022-08-16T03:59:29.860Z,99996.30
2022-08-16T04:02:01.250Z,99994.27
2022-08-16T04:04:33.551Z,99991.13
2022-08-16T04:07:03.611Z,99992.80
2022-08-16T04:09:35.252Z,99993.27
2022-08-16T04:12:10.715Z,99991.23
2022-08-16T04:14:46.831Z,99991.73
2022-08-16T04:17:17.364Z,99988.38
2022-08-16T04:19:46.598Z,99987.91
2022-08-16T04:22:17.343Z,99988.83
2022-08-16T04:24:54.416Z,99988.55
2022-08-16T04:27:24.689Z,99990.80
2022-08-16T04:30:02.950Z,99990.16
2022-08-16T04:32:32.557Z,99985.69
2022-08-16T04:35:06.766Z,99986.59
2022-08-16T04:37:42.177Z,99991.63
2022-08-16T04:40:21.891Z,99997.23
2022-08-16T04:42:54.800Z,99998.32
2022-08-16T04:45:35.669Z,99999.77
2022-08-16T04:48:06.769Z,99995.36
2022-08-16T04:50:37.188Z,99999.17
2022-08-16T04:53:12.335Z,99993.93
2022-08-16T04:55:44.869Z,99993.58
2022-08-16T04:58:44.472Z,99998.02
2022-08-16T05:01:03.708Z,99994.55
2022-08-16T05:03:59.991Z,99997.40
2022-08-16T05:06:44.821Z,99994.42
2022-08-16T05:09:16.281Z,99988.67
2022-08-16T05:11:45.579Z,99987.96
2022-08-16T05:14:20.263Z,99973.70
2022-08-16T05:17:07.014Z,99977.65
2022-08-16T05:19:36.643Z,99979.15
2022-08-16T05:22:05.851Z,99980.27
2022-08-16T05:24:34.765Z,99978.08
2022-08-16T05:27:11.581Z,99977.56
2022-08-16T05:29:59.339Z,99979.91
2022-08-16T05:32:32.749Z,99978.76
2022-08-16T05:35:11.025Z,99978.29
2022-08-16T05:37:41.568Z,99981.06
2022-08-16T05:40:13.449Z,99973.51
2022-08-16T05:42:46.163Z,99984.86
2022-08-16T05:45:21.477Z,99985.55
2022-08-16T05:48:00.251Z,99983.39
2022-08-16T05:50:33.873Z,99982.23
2022-08-16T05:53:03.411Z,99981.27
2022-08-16T05:55:35.158Z,99985.85
2022-08-16T05:58:09.841Z,99984.20
2022-08-16T06:00:58.618Z,99984.45
2022-08-16T06:03:29.452Z,99990.67
2022-08-16T06:06:00.565Z,99997.03
2022-08-16T06:08:31.930Z,99996.54
2022-08-16T06:11:06.336Z,99997.40
2022-08-16T06:13:42.483Z,99999.23
2022-08-16T06:16:17.907Z,99991.65
2022-08-16T06:18:46.594Z,99986.92
2022-08-16T06:21:22.509Z,99979.14
2022-08-16T06:23:54.273Z,99977.77
2022-08-16T06:26:23.633Z,99978.83
2022-08-16T06:29:04.014Z,99984.88
2022-08-16T06:31:46.638Z,99984.30
2022-08-16T06:34:31.668Z,99983.16
2022-08-16T06:37:07.413Z,99984.23
2022-08-16T06:39:46.610Z,99993.81
2022-08-16T06:42:19.366Z,99992.25
2022-08-16T06:44:49.947Z,100000.27
2022-08-16T06:47:19.159Z,99998.65
2022-08-16T06:49:52.611Z,99998.84
2022-08-16T06:53:19.605Z,99998.15
2022-08-16T06:55:12.995Z,100003.96
2022-08-16T06:57:43.184Z,100005.66
2022-08-16T07:00:24.814Z,100010.55
2022-08-16T07:02:54.347Z,100005.80
2022-08-16T07:05:27.070Z,100005.46
2022-08-16T07:08:11.327Z,100004.13
2022-08-16T07:10:41.706Z,99999.67
2022-08-16T07:13:11.999Z,99999.80
2022-08-16T07:15:50.032Z,100004.42
2022-08-16T07:18:20.587Z,99999.50
2022-08-16T07:20:50.956Z,100005.86
2022-08-16T07:23:20.242Z,100016.59
2022-08-16T07:25:49.156Z,100010.92
2022-08-16T07:28:20.728Z,100011.66
2022-08-16T07:30:50.225Z,100010.94
2022-08-16T07:33:52.712Z,100010.48
2022-08-16T07:36:09.791Z,100008.57
2022-08-16T07:38:40.163Z,100007.14
2022-08-16T07:41:10.978Z,100010.15
2022-08-16T07:43:41.722Z,100005.13
2022-08-16T07:46:39.276Z,100004.67
2022-08-16T07:49:02.527Z,100005.19
2022-08-16T07:51:34.376Z,100003.41
2022-08-16T07:54:09.715Z,100007.02
2022-08-16T07:56:39.721Z,100006.13
2022-08-16T07:59:08.540Z,100003.17
2022-08-16T08:01:38.043Z,100007.21
2022-08-16T08:04:11.351Z,100011.39
2022-08-16T08:06:42.461Z,100009.54
2022-08-16T08:09:11.365Z,100008.63
2022-08-16T08:11:40.684Z,99999.45
2022-08-16T08:14:31.867Z,100004.45
2022-08-16T08:17:01.670Z,100005.14
2022-08-16T08:19:31.593Z,100006.38
2022-08-16T08:22:05.961Z,100003.05
2022-08-16T08:24:38.223Z,99998.36
2022-08-16T08:27:08.910Z,100000.16
2022-08-16T08:29:40.341Z,99999.88
2022-08-16T08:32:58.094Z,100003.82
2022-08-16T08:35:03.813Z,100000.52
2022-08-16T08:37:54.570Z,100006.62
2022-08-16T08:40:26.570Z,100000.49
2022-08-16T08:42:57.709Z,99996.15
2022-08-16T08:45:48.789Z,99998.80
2022-08-16T08:48:34.369Z,99993.50
2022-08-16T08:51:03.979Z,99988.19
2022-08-16T08:53:33.960Z,99987.84
2022-08-16T08:56:22.554Z,99983.27
2022-08-16T08:58:58.229Z,99982.66
2022-08-16T09:01:36.858Z,99981.92
2022-08-16T09:04:14.882Z,99979.30
2022-08-16T09:06:45.547Z,99975.77
2022-08-16T09:09:16.552Z,99976.90
2022-08-16T09:11:53.310Z,99974.38
2022-08-16T09:14:23.839Z,99970.31
2022-08-16T09:17:00.923Z,99970.69
2022-08-16T09:19:33.866Z,99972.93
2022-08-16T09:22:03.337Z,99969.36
2022-08-16T09:24:52.375Z,99971.58
2022-08-16T09:27:23.547Z,99973.41
2022-08-16T09:30:00.295Z,99973.79
2022-08-16T09:32:31.205Z,99978.40
2022-08-16T09:35:01.775Z,99974.35
2022-08-16T09:37:36.378Z,99977.28
2022-08-16T09:40:31.692Z,99978.75
2022-08-16T09:42:59.750Z,99986.61
2022-08-16T09:45:29.557Z,99986.00
2022-08-16T09:47:58.873Z,99988.12
2022-08-16T09:50:37.136Z,99986.14
2022-08-16T09:53:15.077Z,99986.27
2022-08-16T09:55:49.160Z,99982.96
2022-08-16T09:58:40.498Z,99980.95
2022-08-16T10:01:08.745Z,99979.55
2022-08-16T10:04:02.773Z,99978.66
2022-08-16T10:06:33.683Z,99969.77
2022-08-16T10:09:06.445Z,99972.76
2022-08-16T10:11:56.227Z,99972.43
2022-08-16T10:14:46.096Z,99969.02
2022-08-16T10:17:16.656Z,99964.47
2022-08-16T10:19:46.456Z,99972.31
2022-08-16T10:22:19.445Z,99968.40
2022-08-16T10:24:55.998Z,99963.46
2022-08-16T10:27:45.625Z,99961.66
2022-08-16T10:30:25.190Z,99959.80
2022-08-16T10:32:55.567Z,99955.89
2022-08-16T10:35:24.767Z,99946.73
2022-08-16T10:38:02.389Z,99945.16
2022-08-16T10:40:36.420Z,99943.42
2022-08-16T10:43:08.210Z,99942.11
2022-08-16T10:45:59.997Z,99932.59
2022-08-16T10:48:31.226Z,99937.11
2022-08-16T10:51:00.323Z,99934.27
2022-08-16T10:53:32.711Z,99935.90
2022-08-16T10:56:06.222Z,99937.15
2022-08-16T10:58:35.818Z,99931.61
2022-08-16T11:03:57.390Z,99931.23
2022-08-16T11:06:27.935Z,99934.98
2022-08-16T11:14:36.393Z,99919.27
2022-08-16T11:17:11.191Z,99920.02
2022-08-16T11:22:42.158Z,99907.61
2022-08-16T11:28:10.715Z,99906.80
2022-08-16T11:30:40.821Z,99902.48
2022-08-16T11:33:10.853Z,99897.73
2022-08-16T11:35:44.248Z,99896.80
2022-08-16T11:38:46.897Z,99887.05
2022-08-16T11:41:06.851Z,99890.72
2022-08-16T11:43:39.867Z,99888.80
2022-08-16T11:46:44.586Z,99892.63
2022-08-16T11:49:01.639Z,99896.66
2022-08-16T11:51:31.637Z,99888.38
2022-08-16T11:54:01.342Z,99881.59
2022-08-16T11:56:51.732Z,99883.60
2022-08-16T11:59:24.385Z,99877.04
2022-08-16T12:01:59.163Z,99875.59
2022-08-16T12:04:28.669Z,99871.67
2022-08-16T12:06:59.007Z,99866.98
2022-08-16T12:09:29.860Z,99867.17
2022-08-16T12:12:01.550Z,99860.41
2022-08-16T12:14:35.382Z,99856.19
2022-08-16T12:17:08.295Z,99853.48
2022-08-16T12:19:38.196Z,99859.98
2022-08-16T12:22:18.933Z,99857.64
2022-08-16T12:24:52.328Z,99852.35
2022-08-16T12:27:24.405Z,99852.85
2022-08-16T12:29:54.331Z,99856.35
2022-08-16T12:32:37.887Z,99856.17
2022-08-16T12:35:12.141Z,99857.11
2022-08-16T12:37:46.250Z,99854.59
2022-08-16T12:40:24.774Z,99861.36
2022-08-16T12:42:58.625Z,99861.97
2022-08-16T12:45:30.613Z,99862.66
2022-08-16T12:48:34.977Z,99857.39
2022-08-16T12:51:10.904Z,99857.63
2022-08-16T12:53:46.740Z,99850.45
2022-08-16T12:56:15.746Z,99849.65
2022-08-16T12:58:51.650Z,99844.67
2022-08-16T13:01:24.049Z,99847.23
2022-08-16T13:04:11.625Z,99846.39
2022-08-16T13:06:44.964Z,99845.75
2022-08-16T13:09:21.111Z,99847.98
2022-08-16T13:12:01.045Z,99844.55
2022-08-16T13:14:34.691Z,99840.48
2022-08-16T13:17:06.671Z,99844.02
2022-08-16T13:20:06.114Z,99837.52
2022-08-16T13:22:27.095Z,99855.84
2022-08-16T13:24:56.018Z,99858.06
2022-08-16T13:28:01.427Z,99856.31
2022-08-16T13:30:36.100Z,99860.34
2022-08-16T13:33:11.334Z,99860.63
2022-08-16T13:35:45.124Z,99857.84
2022-08-16T13:38:21.589Z,99857.52
2022-08-16T13:40:56.703Z,99853.35
2022-08-16T13:43:27.602Z,99856.70
2022-08-16T13:46:04.412Z,99857.02
2022-08-16T13:48:42.908Z,99860.50
2022-08-16T13:51:17.429Z,99854.20
2022-08-16T13:53:54.921Z,99852.60
2022-08-16T13:56:35.970Z,99856.43
2022-08-16T13:59:19.211Z,99854.11
2022-08-16T14:01:55.950Z,99852.17
2022-08-16T14:04:27.827Z,99850.14
2022-08-16T14:06:57.967Z,99844.83
2022-08-16T14:09:28.511Z,99839.21
2022-08-16T14:12:00.465Z,99848.88
2022-08-16T14:14:30.401Z,99844.04
2022-08-16T14:17:02.543Z,99843.09
2022-08-16T14:19:31.358Z,99836.52
2022-08-16T14:22:15.124Z,99844.41
2022-08-16T14:24:52.519Z,99849.11
2022-08-16T14:27:25.324Z,99847.92
2022-08-16T14:29:56.395Z,99846.08
2022-08-16T14:32:34.386Z,99847.10
2022-08-16T14:35:07.701Z,99847.15
2022-08-16T14:37:37.383Z,99852.86
2022-08-16T14:40:10.070Z,99854.48
2022-08-16T14:42:44.179Z,99853.08
2022-08-16T14:45:15.728Z,99853.70
2022-08-16T14:47:46.193Z,99851.80
2022-08-16T14:50:22.450Z,99854.17
2022-08-16T14:52:57.539Z,99857.77
2022-08-16T14:55:29.599Z,99854.70
2022-08-16T14:57:59.381Z,99852.23
2022-08-16T15:00:34.013Z,99844.89
2022-08-16T15:03:09.773Z,99845.13
2022-08-16T15:05:40.929Z,99854.13
2022-08-16T15:08:10.769Z,99846.39
2022-08-16T15:10:45.634Z,99850.48
2022-08-16T15:13:16.421Z,99860.98
2022-08-16T15:15:56.346Z,99863.45
2022-08-16T15:18:31.803Z,99865.73
2022-08-16T15:21:01.930Z,99866.85
2022-08-16T15:23:31.452Z,99865.39
2022-08-16T15:26:04.426Z,99860.58
2022-08-16T15:28:38.073Z,99857.23
2022-08-16T15:31:09.377Z,99855.67
2022-08-16T15:33:44.318Z,99860.02
2022-08-16T15:36:18.592Z,99864.80
2022-08-16T15:39:04.986Z,99864.27
2022-08-16T15:41:55.950Z,99872.52
2022-08-16T15:44:37.695Z,99870.19
2022-08-16T15:47:15.829Z,99868.09
2022-08-16T15:49:53.138Z,99869.84
2022-08-16T15:52:29.725Z,99864.83
2022-08-16T15:55:13.331Z,99865.23
2022-08-16T15:57:51.292Z,99871.59
2022-08-16T16:00:21.031Z,99872.23
2022-08-16T16:02:58.964Z,99872.27
2022-08-16T16:05:27.904Z,99870.46
2022-08-16T16:08:12.283Z,99870.05
2022-08-16T16:10:43.639Z,99874.11
2022-08-16T16:13:23.990Z,99875.65
2022-08-16T16:15:55.573Z,99880.20
2022-08-16T16:18:25.821Z,99878.40
2022-08-16T16:20:57.220Z,99877.27
2022-08-16T16:23:29.281Z,99881.39
2022-08-16T16:25:59.937Z,99876.83
2022-08-16T16:29:06.023Z,99884.99
2022-08-16T16:31:26.382Z,99887.88
2022-08-16T16:33:57.299Z,99897.60
2022-08-16T16:36:29.591Z,99905.47
2022-08-16T16:38:59.492Z,99907.63
2022-08-16T16:41:30.419Z,99902.96
2022-08-16T16:44:00.878Z,99900.42
2022-08-16T16:46:42.648Z,99906.80
2022-08-16T16:49:14.424Z,99907.38
2022-08-16T16:51:47.207Z,99915.79
2022-08-16T16:54:27.995Z,99917.68
2022-08-16T16:56:58.157Z,99923.14
2022-08-16T16:59:28.402Z,99927.19
2022-08-16T17:02:41.746Z,99931.88
2022-08-16T17:04:48.873Z,99933.23
2022-08-16T17:07:24.034Z,99938.02
2022-08-16T17:09:53.927Z,99938.19
2022-08-16T17:12:25.143Z,99937.07
2022-08-16T17:15:14.918Z,99940.73
2022-08-16T17:18:00.288Z,99945.85
2022-08-16T17:20:29.736Z,99948.96
2022-08-16T17:22:58.871Z,99951.36
2022-08-16T17:25:36.289Z,99951.66
2022-08-16T17:28:59.172Z,99955.52
2022-08-16T17:30:57.900Z,99958.40
2022-08-16T17:33:28.040Z,99961.58
2022-08-16T17:36:08.661Z,99963.63
2022-08-16T17:38:43.749Z,99957.81
2022-08-16T17:41:15.011Z,99954.13
2022-08-16T17:43:44.996Z,99960.55
2022-08-16T17:46:50.424Z,99965.75
2022-08-16T17:49:05.733Z,99974.20
2022-08-16T17:51:35.854Z,99973.38
2022-08-16T17:54:06.152Z,99981.26
2022-08-16T17:56:34.946Z,99980.91
2022-08-16T17:59:03.965Z,99981.08
2022-08-16T18:01:32.823Z,99983.94
2022-08-16T18:04:07.604Z,99983.55
2022-08-16T18:06:39.440Z,99984.55
2022-08-16T18:09:09.345Z,99985.85
2022-08-16T18:11:43.094Z,99984.65
2022-08-16T18:14:15.198Z,99985.74
2022-08-16T18:16:45.627Z,99990.93
2022-08-16T18:19:14.873Z,99989.13
2022-08-16T18:22:02.148Z,99990.04
2022-08-16T18:24:31.044Z,99991.21
2022-08-16T18:27:24.882Z,99994.80
2022-08-16T18:29:52.112Z,99994.69
2022-08-16T18:32:21.998Z,99995.93
2022-08-16T18:34:54.157Z,99998.49
2022-08-16T18:37:23.861Z,99995.15
2022-08-16T18:39:52.719Z,99992.52
2022-08-16T18:42:21.551Z,99994.25
2022-08-16T18:44:50.327Z,99994.67
2022-08-16T18:47:19.064Z,99993.55
2022-08-16T18:49:47.911Z,99991.43
2022-08-16T18:52:25.237Z,99997.09
2022-08-16T18:54:58.871Z,99999.46
2022-08-16T18:57:36.866Z,99999.23
2022-08-16T19:00:11.827Z,100000.65
2022-08-16T19:02:57.981Z,99998.89
2022-08-16T19:05:30.292Z,100002.04
2022-08-16T19:08:00.342Z,100002.77
2022-08-16T19:10:30.936Z,100003.98
2022-08-16T19:13:04.464Z,100006.20
2022-08-16T19:15:33.642Z,100004.83
2022-08-16T19:18:02.512Z,100008.79
2022-08-16T19:20:31.443Z,100011.23
2022-08-16T19:23:05.667Z,100011.97
2022-08-16T19:25:49.109Z,100013.47
2022-08-16T19:28:52.088Z,100018.46
2022-08-16T19:31:17.821Z,100017.51
2022-08-16T19:33:54.129Z,100023.05
2022-08-16T19:36:35.110Z,100015.14
2022-08-16T19:39:08.654Z,100020.29
2022-08-16T19:41:40.805Z,100019.39
2022-08-16T19:44:10.406Z,100018.20
2022-08-16T19:46:44.299Z,100021.08
2022-08-16T19:49:15.997Z,100015.70
2022-08-16T19:51:46.513Z,100018.20
2022-08-16T19:54:16.073Z,100015.51
2022-08-16T19:56:44.879Z,100019.68
2022-08-16T19:59:22.358Z,100013.30
2022-08-16T20:02:04.164Z,100021.52
2022-08-16T20:04:33.065Z,100021.40
2022-08-16T20:07:01.884Z,100023.12
2022-08-16T20:09:32.680Z,100027.01
2022-08-16T20:12:06.612Z,100026.97
2022-08-16T20:14:35.460Z,100028.95
2022-08-16T20:17:04.656Z,100029.85
2022-08-16T20:19:37.011Z,100028.91
2022-08-16T20:22:49.817Z,100028.11
2022-08-16T20:25:13.737Z,100025.58
2022-08-16T20:27:43.144Z,100028.31
2022-08-16T20:30:14.208Z,100028.16
2022-08-16T20:32:44.848Z,100025.51
2022-08-16T20:35:16.741Z,100026.41
2022-08-16T20:37:46.899Z,100026.67
2022-08-16T20:40:34.454Z,100025.49
2022-08-16T20:43:07.977Z,100027.10
2022-08-16T20:45:38.066Z,100032.00
2022-08-16T20:48:07.505Z,100034.69
2022-08-16T20:50:36.836Z,100035.75
2022-08-16T20:53:06.374Z,100036.05
2022-08-16T20:55:36.973Z,100043.71
2022-08-16T20:58:05.779Z,100049.79
2022-08-16T21:00:34.792Z,100057.15
2022-08-16T21:03:07.084Z,100058.77
2022-08-16T21:05:36.587Z,100063.09
2022-08-16T21:08:29.505Z,100065.27
2022-08-16T21:10:56.202Z,100067.24
2022-08-16T21:13:25.423Z,100066.46
2022-08-16T21:15:54.559Z,100066.58
2022-08-16T21:18:23.403Z,100064.46
2022-08-16T21:20:52.957Z,100065.23
2022-08-16T21:23:22.145Z,100066.62
2022-08-16T21:25:58.794Z,100070.13
2022-08-16T21:28:41.465Z,100071.58
2022-08-16T21:31:12.586Z,100072.41
2022-08-16T21:33:42.539Z,100074.03
2022-08-16T21:36:12.527Z,100072.28
2022-08-16T21:38:41.364Z,100069.86
2022-08-16T21:41:12.255Z,100072.12
2022-08-16T21:43:41.830Z,100075.30
2022-08-16T21:46:10.745Z,100075.04
2022-08-16T21:48:40.693Z,100074.55
2022-08-16T21:51:13.199Z,100075.58
2022-08-16T21:53:43.235Z,100077.02
2022-08-16T21:56:16.874Z,100073.74
2022-08-16T21:58:46.642Z,100069.35
2022-08-16T22:01:22.784Z,100069.59
2022-08-16T22:04:01.748Z,100075.04
2022-08-16T22:06:42.225Z,100078.01
2022-08-16T22:09:14.563Z,100078.19
2022-08-16T22:11:44.021Z,100078.52
2022-08-16T22:14:13.005Z,100080.86
2022-08-16T22:16:42.872Z,100084.98
2022-08-16T22:19:12.683Z,100084.13
2022-08-16T22:21:41.664Z,100085.46
2022-08-16T22:24:10.923Z,100080.23
2022-08-16T22:26:43.054Z,100081.89
2022-08-16T22:29:14.192Z,100077.36
2022-08-16T22:31:43.790Z,100076.30
2022-08-16T22:34:12.656Z,100076.92
2022-08-16T22:36:42.112Z,100067.77
2022-08-16T22:39:13.117Z,100067.38
2022-08-16T22:41:44.904Z,100068.67
2022-08-16T22:44:13.740Z,100065.98
2022-08-16T22:46:42.600Z,100061.48
2022-08-16T22:49:12.314Z,100059.92
2022-08-16T22:51:41.632Z,100058.75
2022-08-16T22:54:42.570Z,100057.83
2022-08-16T22:56:59.406Z,100055.48
2022-08-16T22:59:29.862Z,100054.55
2022-08-16T23:01:58.842Z,100056.42
2022-08-16T23:04:27.893Z,100056.09
2022-08-16T23:06:57.055Z,100060.54
2022-08-16T23:09:26.032Z,100061.45
2022-08-16T23:11:54.935Z,100061.56
2022-08-16T23:14:24.332Z,100061.71
2022-08-16T23:16:53.148Z,100055.63
2022-08-16T23:19:21.983Z,100057.14
2022-08-16T23:21:52.332Z,100062.71
2022-08-16T23:24:21.297Z,100065.30
2022-08-16T23:26:50.334Z,100061.00
2022-08-16T23:29:24.732Z,100054.11
2022-08-16T23:31:58.598Z,100052.41
2022-08-16T23:34:28.870Z,100052.62
2022-08-16T23:36:57.709Z,100049.52
2022-08-16T23:39:26.618Z,100048.97
2022-08-16T23:41:55.475Z,100045.60
2022-08-16T23:44:58.533Z,100047.25
2022-08-16T23:47:13.558Z,100043.95
2022-08-16T23:49:56.290Z,100047.27
2022-08-16T23:52:43.743Z,100043.48
2022-08-16T23:55:20.301Z,100041.45
2022-08-16T23:57:49.245Z,100041.25
